Time;durP1;ratioP1;P1;durP2;ratioP2;P2;SDS_P1;SDS_P2;PMS_P1;PMS_P2;Temp;Humidity;BMP_temperature;BMP_pressure;BME280_temperature;BME280_humidity;BME280_pressure;Samples;Min_cycle;Max_cycle;Signal;HPM_P1;HPM_P2
2022/07/06 00:02:13;;;;;;;5.75;4.07;;;;;;;10.98;80.50;102518.53;5071999;28;20463;-69
2022/07/06 00:04:38;;;;;;;7.32;4.00;;;;;;;10.92;80.93;102530.72;5070332;28;20035;-69
2022/07/06 00:07:03;;;;;;;7.03;4.10;;;;;;;10.94;81.27;102523.78;5073305;28;20024;-69
2022/07/06 00:09:28;;;;;;;9.00;3.80;;;;;;;10.92;81.69;102528.09;5063738;28;20029;-69
2022/07/06 00:11:54;;;;;;;5.72;4.05;;;;;;;10.91;81.65;102526.38;5074636;28;20037;-69
2022/07/06 00:14:19;;;;;;;6.15;4.20;;;;;;;10.87;81.80;102525.50;5072600;28;20028;-69
2022/07/06 00:16:44;;;;;;;5.47;4.10;;;;;;;10.85;81.92;102528.97;5072792;28;20032;-69
2022/07/06 00:19:10;;;;;;;4.93;3.75;;;;;;;10.79;81.62;102522.00;5071731;28;20025;-69
2022/07/06 00:21:35;;;;;;;4.32;3.88;;;;;;;10.87;81.95;102530.72;5067284;28;20053;-69
2022/07/06 00:24:00;;;;;;;6.57;4.15;;;;;;;10.81;82.34;102532.44;5073591;28;20020;-69
2022/07/06 00:26:26;;;;;;;6.13;4.05;;;;;;;10.83;82.45;102535.94;5073153;28;20147;-69
2022/07/06 00:28:51;;;;;;;8.57;4.35;;;;;;;10.82;82.59;102531.56;5073220;28;20028;-69
2022/07/06 00:31:16;;;;;;;5.32;4.45;;;;;;;10.84;82.82;102533.31;5064922;28;20024;-69
2022/07/06 00:33:42;;;;;;;5.85;4.28;;;;;;;10.90;82.69;102532.47;5065646;28;20056;-69
2022/07/06 00:36:07;;;;;;;7.68;4.15;;;;;;;10.87;82.34;102532.47;5067878;28;20536;-69
2022/07/06 00:38:32;;;;;;;7.18;3.75;;;;;;;10.87;82.71;102525.50;5064853;28;20046;-69
2022/07/06 00:40:58;;;;;;;6.32;4.47;;;;;;;10.82;82.94;102523.75;5063110;28;20495;-69
2022/07/06 00:43:23;;;;;;;7.22;4.25;;;;;;;10.78;83.04;102528.94;5073729;28;20036;-69
2022/07/06 00:45:48;;;;;;;8.48;5.00;;;;;;;10.77;83.06;102528.97;5073049;28;20033;-69
2022/07/06 00:48:14;;;;;;;7.07;4.85;;;;;;;10.74;83.22;102528.94;5072000;28;20031;-69
2022/07/06 00:50:39;;;;;;;6.20;4.40;;;;;;;10.73;83.37;102533.28;5071809;28;20107;-69
2022/07/06 00:53:05;;;;;;;8.02;4.85;;;;;;;10.68;83.31;102540.22;5072945;28;20077;-69
2022/07/06 00:55:36;;;;;;;5.35;3.97;;;;;;;10.69;83.35;102535.88;5072517;28;20021;-69
2022/07/06 00:58:03;;;;;;;7.70;4.53;;;;;;;10.64;83.91;102537.63;5072758;28;20086;-69
2022/07/06 01:00:29;;;;;;;7.97;4.32;;;;;;;10.59;84.07;102528.88;5068359;28;20032;-69
2022/07/06 01:02:55;;;;;;;8.05;4.85;;;;;;;10.55;84.21;102528.88;5067991;28;20017;-69
2022/07/06 01:05:21;;;;;;;7.18;4.60;;;;;;;10.50;84.26;102525.41;5073182;28;20025;-69
2022/07/06 01:07:47;;;;;;;9.48;5.57;;;;;;;10.44;84.55;102524.50;5070707;28;20036;-69
2022/07/06 01:10:14;;;;;;;8.73;5.13;;;;;;;10.40;84.43;102534.06;5067593;28;20081;-69
2022/07/06 01:12:41;;;;;;;9.32;5.90;;;;;;;10.38;84.82;102521.88;5064746;28;20033;-69
2022/07/06 01:15:29;;;;;;;9.18;5.60;;;;;;;10.32;84.72;102523.56;5072653;28;20029;-69
2022/07/06 01:17:55;;;;;;;7.65;5.05;;;;;;;10.27;84.90;102524.44;5072148;28;20037;-69
2022/07/06 01:20:22;;;;;;;9.13;5.68;;;;;;;10.22;85.95;102526.97;5070874;28;20028;-69
2022/07/06 01:22:50;;;;;;;7.15;5.50;;;;;;;10.28;85.66;102523.56;5071655;28;20025;-69
2022/07/06 01:25:16;;;;;;;8.40;5.28;;;;;;;10.29;85.51;102526.16;5072609;28;20457;-69
2022/07/06 01:27:42;;;;;;;7.38;5.60;;;;;;;10.26;85.86;102517.47;5071591;28;20033;-69
2022/07/06 01:30:10;;;;;;;11.40;5.60;;;;;;;10.30;85.13;102520.09;5067746;28;20021;-70
2022/07/06 01:32:36;;;;;;;7.43;5.60;;;;;;;10.27;85.58;102530.53;5072200;28;20369;-69
2022/07/06 01:35:02;;;;;;;11.25;5.60;;;;;;;10.21;85.90;102530.44;5072075;28;20032;-69
2022/07/06 01:37:27;;;;;;;12.05;5.80;;;;;;;10.14;86.29;102525.22;5059178;28;20021;-69
2022/07/06 01:39:53;;;;;;;7.95;5.60;;;;;;;10.11;86.23;102522.59;5071132;28;20094;-69
2022/07/06 01:42:18;;;;;;;6.35;5.28;;;;;;;10.05;86.45;102531.22;5068094;28;20035;-69
2022/07/06 01:44:44;;;;;;;7.72;5.55;;;;;;;9.98;86.81;102525.13;5068145;28;20035;-69
2022/07/06 01:47:10;;;;;;;9.70;6.10;;;;;;;9.94;86.68;102523.38;5069900;28;20024;-69
2022/07/06 01:49:35;;;;;;;11.73;5.38;;;;;;;9.97;86.99;102527.69;5064923;28;20461;-69
2022/07/06 01:52:01;;;;;;;10.25;5.90;;;;;;;9.95;86.94;102525.09;5061382;28;20028;-69
2022/07/06 01:54:26;;;;;;;8.77;5.72;;;;;;;9.97;87.03;102526.00;5065182;28;20021;-69
2022/07/06 01:56:51;;;;;;;11.13;6.05;;;;;;;9.97;87.04;102523.38;5071405;28;20766;-69
2022/07/06 01:59:16;;;;;;;9.98;5.80;;;;;;;9.97;86.84;102518.19;5069134;28;20044;-69
2022/07/06 02:01:42;;;;;;;9.27;6.13;;;;;;;9.92;87.08;102514.66;5059133;28;20060;-69
2022/07/06 02:04:07;;;;;;;8.23;6.07;;;;;;;9.90;86.97;102521.56;5071692;28;20025;-69
2022/07/06 02:06:32;;;;;;;9.68;5.80;;;;;;;9.85;87.60;102529.38;5070512;28;20035;-69
2022/07/06 02:08:57;;;;;;;11.40;5.97;;;;;;;9.78;87.79;102531.94;5056612;28;20037;-69
2022/07/06 02:11:23;;;;;;;8.63;6.25;;;;;;;9.72;88.28;102529.28;5063335;28;20035;-69
2022/07/06 02:13:48;;;;;;;11.57;7.00;;;;;;;9.68;88.57;102532.72;5070602;28;20099;-69
2022/07/06 02:16:13;;;;;;;14.40;7.18;;;;;;;9.65;89.04;102530.13;5071051;28;20025;-69
2022/07/06 02:18:39;;;;;;;10.45;6.72;;;;;;;9.60;88.91;102532.66;5068863;28;20029;-69
2022/07/06 02:21:05;;;;;;;13.68;7.03;;;;;;;9.60;89.57;102525.72;5069900;28;20534;-69
2022/07/06 02:23:30;;;;;;;9.05;6.47;;;;;;;9.57;89.49;102525.69;5071804;28;20210;-69
2022/07/06 02:25:55;;;;;;;9.20;6.30;;;;;;;9.56;89.44;102526.56;5070423;28;20020;-69
2022/07/06 02:28:21;;;;;;;9.23;6.88;;;;;;;9.57;90.03;102528.28;5071070;28;20039;-69
2022/07/06 02:30:46;;;;;;;9.85;6.82;;;;;;;9.54;89.65;102522.19;5057057;28;20488;-69
2022/07/06 02:33:12;;;;;;;13.90;7.40;;;;;;;9.52;90.21;102519.59;5069026;28;20036;-69
2022/07/06 02:35:41;;;;;;;12.25;7.18;;;;;;;9.49;90.09;102524.78;5071545;28;20460;-69
2022/07/06 02:38:07;;;;;;;9.88;6.75;;;;;;;9.49;90.06;102523.91;5069679;28;20020;-69
2022/07/06 02:40:32;;;;;;;8.75;7.15;;;;;;;9.48;90.25;102523.06;5069698;28;20387;-69
2022/07/06 02:42:57;;;;;;;10.82;7.35;;;;;;;9.46;90.31;102518.69;5071360;28;20097;-69
2022/07/06 02:45:23;;;;;;;9.95;6.55;;;;;;;9.43;90.52;102524.72;5068173;28;20038;-69
2022/07/06 02:47:48;;;;;;;13.57;7.28;;;;;;;9.40;90.42;102524.69;5060795;28;20079;-69
2022/07/06 02:50:13;;;;;;;10.98;7.10;;;;;;;9.39;90.82;102525.56;5061425;28;20031;-69
2022/07/06 02:52:38;;;;;;;9.45;7.15;;;;;;;9.40;90.80;102524.69;5053890;28;20120;-69
2022/07/06 02:55:04;;;;;;;12.30;7.07;;;;;;;9.39;91.05;102528.16;5070784;28;20020;-69
2022/07/06 02:57:29;;;;;;;9.93;7.35;;;;;;;9.40;91.21;102534.25;5067341;28;20178;-69
2022/07/06 02:59:54;;;;;;;10.30;6.93;;;;;;;9.37;91.51;102528.16;5068812;28;20033;-69
2022/07/06 03:02:20;;;;;;;9.63;7.00;;;;;;;9.34;91.74;102530.72;5068541;28;20058;-69
2022/07/06 03:04:45;;;;;;;13.75;7.25;;;;;;;9.43;91.67;102529.94;5070741;28;20051;-69
2022/07/06 03:07:11;;;;;;;9.73;7.20;;;;;;;9.39;91.86;102530.78;5071572;28;20044;-69
2022/07/06 03:09:37;;;;;;;9.10;7.30;;;;;;;9.38;92.00;102532.50;5069292;28;20043;-69
2022/07/06 03:12:02;;;;;;;12.00;7.20;;;;;;;9.39;91.93;102522.97;5072657;28;20392;-69
2022/07/06 03:14:28;;;;;;;9.65;7.35;;;;;;;9.40;91.85;102534.25;5075321;28;20050;-68
2022/07/06 03:16:54;;;;;;;10.52;7.65;;;;;;;9.40;91.72;102536.84;5073754;28;20008;-68
2022/07/06 03:19:20;;;;;;;9.85;6.95;;;;;;;9.37;92.17;102532.47;5074473;28;20496;-68
2022/07/06 03:21:45;;;;;;;11.15;6.97;;;;;;;9.41;92.26;102543.78;5074586;28;20124;-69
2022/07/06 03:24:11;;;;;;;10.65;7.72;;;;;;;9.41;92.22;102534.25;5074507;28;20032;-69
2022/07/06 03:26:36;;;;;;;12.77;8.20;;;;;;;9.40;92.30;102539.44;5074873;28;20116;-69
2022/07/06 03:29:01;;;;;;;9.55;7.35;;;;;;;9.41;92.17;102536.84;5073777;28;20103;-69
2022/07/06 03:31:27;;;;;;;12.00;7.82;;;;;;;9.41;92.83;102531.63;5074634;28;20490;-69
2022/07/06 03:33:52;;;;;;;13.52;7.65;;;;;;;9.39;92.91;102541.19;5074223;28;20041;-69
2022/07/06 03:36:17;;;;;;;10.68;7.68;;;;;;;9.37;93.11;102535.09;5074096;28;20457;-69
2022/07/06 03:38:43;;;;;;;17.02;7.13;;;;;;;9.38;92.81;102542.03;5069520;28;20037;-69
2022/07/06 03:41:08;;;;;;;12.18;7.70;;;;;;;9.35;93.45;102529.88;5074231;28;20070;-69
2022/07/06 03:43:34;;;;;;;10.13;7.43;;;;;;;9.44;93.53;102539.47;5068682;28;20580;-69
2022/07/06 03:45:59;;;;;;;11.55;7.35;;;;;;;9.40;93.12;102540.31;5073685;28;20032;-69
2022/07/06 03:48:24;;;;;;;9.82;7.28;;;;;;;9.44;93.43;102541.22;5073886;28;20486;-69
2022/07/06 03:50:50;;;;;;;11.75;7.60;;;;;;;9.43;93.29;102542.09;5070136;28;20074;-69
2022/07/06 03:53:15;;;;;;;12.32;7.25;;;;;;;9.42;93.70;102537.72;5059760;28;20388;-69
2022/07/06 03:55:40;;;;;;;11.90;7.90;;;;;;;9.45;93.70;102549.06;5074228;28;20025;-69
2022/07/06 03:58:05;;;;;;;9.65;7.53;;;;;;;9.45;94.04;102538.66;5072639;28;20028;-69
2022/07/06 04:00:31;;;;;;;12.32;8.38;;;;;;;9.45;93.84;102537.75;5064015;28;20473;-69
2022/07/06 04:02:56;;;;;;;11.65;8.27;;;;;;;9.48;93.84;102532.56;5061423;28;20504;-69
2022/07/06 04:05:22;;;;;;;10.68;8.00;;;;;;;9.50;94.21;102533.47;5073629;28;20028;-69
2022/07/06 04:07:48;;;;;;;11.25;7.63;;;;;;;9.54;93.97;102530.88;5072003;28;20029;-69
2022/07/06 04:10:14;;;;;;;11.15;7.72;;;;;;;9.56;94.10;102536.97;5061602;28;20512;-69
2022/07/06 04:12:41;;;;;;;9.63;7.50;;;;;;;9.56;93.69;102536.13;5072394;28;20029;-69
2022/07/06 04:15:07;;;;;;;11.20;8.25;;;;;;;9.54;93.95;102530.88;5073213;28;20024;-69
2022/07/06 04:20:16;;;;;;;;;;;;;;;9.68;90.88;102527.50;5062585;28;20055;-69
2022/07/06 04:22:42;;;;;;;11.27;7.22;;;;;;;9.67;93.35;102517.97;5071235;28;20360;-69
2022/07/06 04:25:08;;;;;;;9.68;7.72;;;;;;;9.69;93.60;102521.47;5073680;28;20385;-69
2022/07/06 04:27:34;;;;;;;11.25;7.93;;;;;;;9.71;93.98;102527.53;5072840;28;20077;-69
2022/07/06 04:29:59;;;;;;;11.32;7.63;;;;;;;9.68;94.53;102517.09;5072397;28;20418;-69
2022/07/06 04:32:24;;;;;;;10.13;7.78;;;;;;;9.74;94.33;102524.94;5070132;28;20024;-69
2022/07/06 04:34:49;;;;;;;10.68;7.65;;;;;;;9.77;94.61;102510.22;5072213;28;20024;-69
2022/07/06 04:37:15;;;;;;;10.52;8.23;;;;;;;9.85;94.35;102515.47;5073803;28;20061;-69
2022/07/06 04:39:40;;;;;;;12.13;7.75;;;;;;;9.90;94.85;102518.09;5066156;28;20781;-69
2022/07/06 04:42:05;;;;;;;10.63;8.05;;;;;;;9.97;94.65;102518.19;5058166;28;20037;-69
2022/07/06 04:44:31;;;;;;;10.90;7.85;;;;;;;10.02;94.47;102516.44;5073566;28;20044;-69
2022/07/06 04:46:56;;;;;;;10.27;7.68;;;;;;;10.15;94.52;102512.16;5072429;28;20051;-69
2022/07/06 04:49:21;;;;;;;11.52;7.88;;;;;;;10.23;94.07;102520.00;5072731;28;20065;-69
2022/07/06 04:51:46;;;;;;;12.35;7.70;;;;;;;10.31;94.22;102526.19;5071278;28;20373;-69
2022/07/06 04:54:12;;;;;;;11.02;7.97;;;;;;;10.39;94.22;102521.88;5064359;28;20037;-69
2022/07/06 04:56:37;;;;;;;12.20;7.65;;;;;;;10.47;94.11;102520.16;5071747;28;20365;-69
2022/07/06 04:59:02;;;;;;;12.23;7.57;;;;;;;10.53;93.75;102519.34;5072350;28;20055;-69
2022/07/06 05:01:27;;;;;;;8.98;7.07;;;;;;;10.61;93.11;102515.00;5071278;28;20171;-69
2022/07/06 05:03:53;;;;;;;9.88;7.13;;;;;;;10.73;93.34;102524.59;5072766;28;20078;-69
2022/07/06 05:06:19;;;;;;;10.30;7.95;;;;;;;10.81;92.40;102527.22;5070042;28;20040;-69
2022/07/06 05:08:45;;;;;;;10.98;7.43;;;;;;;10.92;92.94;102531.63;5071778;28;20457;-69
2022/07/06 05:11:10;;;;;;;9.88;7.25;;;;;;;11.04;91.91;102528.13;5068722;28;20082;-69
2022/07/06 05:13:35;;;;;;;9.52;7.13;;;;;;;11.16;91.43;102536.00;5058826;28;20068;-69
2022/07/06 05:16:00;;;;;;;12.45;7.13;;;;;;;11.33;91.68;102530.78;5071159;28;20048;-69
2022/07/06 05:18:26;;;;;;;13.32;6.68;;;;;;;11.46;89.86;102532.50;5072054;28;20085;-69
2022/07/06 05:20:51;;;;;;;9.52;6.47;;;;;;;11.59;89.55;102532.50;5067107;28;20700;-69
2022/07/06 05:23:16;;;;;;;10.63;7.07;;;;;;;11.73;89.82;102535.97;5070002;28;20062;-69
2022/07/06 05:25:41;;;;;;;9.35;6.30;;;;;;;11.86;89.93;102529.03;5072534;28;20032;-69
2022/07/06 05:28:07;;;;;;;7.93;6.10;;;;;;;11.98;88.40;102535.97;5072504;28;20021;-69
2022/07/06 05:30:32;;;;;;;9.07;6.28;;;;;;;12.10;88.98;102538.56;5062247;28;20086;-69
2022/07/06 05:32:57;;;;;;;13.80;5.90;;;;;;;12.19;88.40;102542.00;5070157;28;20028;-69
2022/07/06 05:35:23;;;;;;;8.15;5.80;;;;;;;12.30;88.88;102536.75;5072293;28;20059;-69
2022/07/06 05:37:48;;;;;;;9.38;5.55;;;;;;;12.44;86.60;102528.84;5071376;28;20093;-69
2022/07/06 05:40:13;;;;;;;8.13;5.68;;;;;;;12.57;85.54;102532.28;5072457;28;20067;-69
2022/07/06 05:42:39;;;;;;;7.60;5.40;;;;;;;12.73;86.53;102539.16;5071264;28;20035;-69
2022/07/06 05:45:06;;;;;;;9.13;4.85;;;;;;;12.80;85.53;102535.63;5071745;28;20032;-69
2022/07/06 05:50:15;;;;;;;9.57;4.50;;;;;;;13.08;84.16;102541.59;5071970;28;20082;-69
2022/07/06 05:52:42;;;;;;;6.57;4.10;;;;;;;13.17;84.67;102540.63;5057599;28;20029;-69
2022/07/06 05:55:09;;;;;;;6.35;4.07;;;;;;;13.30;84.81;102542.31;5072223;28;20028;-69
2022/07/06 05:57:35;;;;;;;8.15;3.72;;;;;;;13.42;83.17;102543.09;5067702;28;20583;-69
2022/07/06 06:00:00;;;;;;;10.15;4.35;;;;;;;13.48;82.44;102543.06;5059974;28;20111;-69
2022/07/06 06:02:25;;;;;;;5.68;3.13;;;;;;;13.57;83.31;102546.47;5070944;28;20021;-69
2022/07/06 06:04:51;;;;;;;4.95;3.25;;;;;;;13.63;80.28;102545.53;5067514;28;20112;-69
2022/07/06 06:07:16;;;;;;;5.75;3.50;;;;;;;13.71;81.54;102548.09;5072008;28;20104;-69
2022/07/06 06:09:41;;;;;;;5.38;2.88;;;;;;;13.73;82.83;102552.44;5071552;28;20040;-69
2022/07/06 06:12:07;;;;;;;5.63;2.97;;;;;;;13.71;82.16;102551.56;5070401;28;20144;-69
2022/07/06 06:14:32;;;;;;;7.65;2.80;;;;;;;13.78;80.62;102548.00;5058739;28;20036;-69
2022/07/06 06:16:58;;;;;;;4.35;2.22;;;;;;;13.84;81.79;102554.94;5063215;28;20028;-69
2022/07/06 06:19:23;;;;;;;3.70;2.38;;;;;;;13.88;81.27;102555.78;5063750;28;20154;-69
2022/07/06 06:21:49;;;;;;;3.10;2.65;;;;;;;13.89;79.00;102549.66;5068557;28;20178;-69
2022/07/06 06:24:14;;;;;;;4.93;2.92;;;;;;;13.91;79.83;102545.28;5065045;28;20021;-69
2022/07/06 06:26:39;;;;;;;4.47;2.72;;;;;;;13.87;80.31;102549.69;5064797;28;20377;-69
2022/07/06 06:29:04;;;;;;;4.85;2.60;;;;;;;13.87;79.79;102556.69;5071744;28;20380;-70
2022/07/06 06:31:30;;;;;;;6.65;3.28;;;;;;;13.87;81.10;102549.69;5070474;28;20030;-69
2022/07/06 06:33:55;;;;;;;6.38;2.95;;;;;;;13.92;80.57;102547.00;5063868;28;20041;-69
2022/07/06 06:36:20;;;;;;;3.67;2.10;;;;;;;13.87;81.72;102549.69;5067696;28;20021;-70
2022/07/06 06:38:46;;;;;;;9.25;3.13;;;;;;;13.85;81.99;102553.19;5066879;28;20079;-70
2022/07/06 06:41:11;;;;;;;4.20;2.60;;;;;;;13.77;81.57;102559.38;5070760;28;20036;-69
2022/07/06 06:43:37;;;;;;;3.40;2.25;;;;;;;13.72;83.70;102555.06;5071666;28;20029;-69
2022/07/06 06:46:03;;;;;;;7.07;2.60;;;;;;;13.65;84.24;102559.50;5071995;28;20021;-69
2022/07/06 06:48:28;;;;;;;5.78;2.38;;;;;;;13.58;85.49;102560.44;5075908;28;20016;-69
2022/07/06 06:50:53;;;;;;;2.80;1.98;;;;;;;13.53;85.70;102554.34;5072739;28;20423;-69
2022/07/06 06:53:19;;;;;;;3.97;2.00;;;;;;;13.49;85.68;102563.13;5059533;28;20086;-70
2022/07/06 06:55:44;;;;;;;5.35;3.08;;;;;;;13.55;84.82;102563.94;5072186;28;20028;-69
2022/07/06 06:58:09;;;;;;;5.43;2.47;;;;;;;13.62;82.67;102567.38;5073920;28;20102;-69
2022/07/06 07:00:34;;;;;;;6.47;2.50;;;;;;;13.63;83.71;102569.09;5074714;28;20086;-70
2022/07/06 07:03:00;;;;;;;3.40;2.38;;;;;;;13.66;83.55;102560.34;5069480;28;20028;-69
2022/07/06 07:05:25;;;;;;;3.58;2.30;;;;;;;13.74;82.62;102564.66;5075588;28;20025;-69
2022/07/06 07:07:51;;;;;;;2.97;2.30;;;;;;;13.88;82.66;102566.28;5073041;28;20389;-69
2022/07/06 07:10:16;;;;;;;4.97;2.30;;;;;;;14.05;82.50;102565.22;5075260;28;20480;-69
2022/07/06 07:12:46;;;;;;;4.20;1.77;;;;;;;14.24;76.45;102557.16;5074254;28;20085;-69
2022/07/06 07:15:11;;;;;;;7.13;2.00;;;;;;;14.43;77.02;102574.41;5074795;28;20020;-70
2022/07/06 07:17:37;;;;;;;3.03;1.60;;;;;;;14.53;78.73;102562.09;5075080;28;20354;-69
2022/07/06 07:20:03;;;;;;;4.43;1.63;;;;;;;14.68;75.81;102567.16;5074877;28;20404;-70
2022/07/06 07:22:28;;;;;;;2.35;1.50;;;;;;;14.83;74.13;102570.44;5075431;28;20078;-69
2022/07/06 07:24:54;;;;;;;1.67;1.15;;;;;;;14.99;75.51;102567.56;5073937;28;20401;-69
2022/07/06 07:27:19;;;;;;;5.78;1.05;;;;;;;15.09;74.55;102568.31;5075160;28;20029;-69
2022/07/06 07:29:44;;;;;;;1.30;0.60;;;;;;;15.13;69.20;102558.63;5073833;28;20025;-69
2022/07/06 07:32:10;;;;;;;3.38;0.85;;;;;;;15.20;70.44;102561.16;5066895;28;20063;-69
2022/07/06 07:34:35;;;;;;;4.25;1.10;;;;;;;15.28;68.85;102568.03;5073988;28;20020;-69
2022/07/06 07:37:00;;;;;;;1.92;0.80;;;;;;;15.39;69.89;102576.59;5073726;28;20032;-69
2022/07/06 07:39:25;;;;;;;1.83;0.70;;;;;;;15.50;65.78;102568.53;5074748;28;20025;-69
2022/07/06 07:41:51;;;;;;;1.70;0.90;;;;;;;15.56;67.72;102569.31;5062199;28;20029;-69
2022/07/06 07:44:16;;;;;;;3.75;1.08;;;;;;;15.59;65.73;102561.38;5069776;28;20036;-70
2022/07/06 07:46:42;;;;;;;2.22;0.88;;;;;;;15.62;66.84;102561.31;5083316;28;20069;-70
2022/07/06 07:49:07;;;;;;;1.33;0.70;;;;;;;15.76;63.74;102570.75;5074547;28;20027;-70
2022/07/06 07:51:32;;;;;;;2.17;0.73;;;;;;;15.86;65.33;102572.34;5068345;28;20492;-70
2022/07/06 07:53:58;;;;;;;2.92;0.70;;;;;;;16.00;66.29;102559.81;5063508;28;20029;-69
2022/07/06 07:56:23;;;;;;;2.80;0.82;;;;;;;16.09;61.45;102564.91;5051720;28;20021;-70
2022/07/06 07:58:48;;;;;;;2.53;0.98;;;;;;;16.15;61.89;102558.63;5056817;28;20044;-70
2022/07/06 08:01:14;;;;;;;1.13;0.60;;;;;;;16.26;62.61;102561.94;5053051;28;20051;-69
2022/07/06 08:03:39;;;;;;;1.65;0.90;;;;;;;16.32;63.94;102556.56;5054024;28;20053;-69
2022/07/06 08:06:05;;;;;;;0.73;0.57;;;;;;;16.36;58.85;102549.47;5064696;28;20166;-70
2022/07/06 08:08:30;;;;;;;2.65;0.90;;;;;;;16.41;61.49;102537.06;5053324;28;20025;-69
2022/07/06 08:10:55;;;;;;;1.42;0.55;;;;;;;16.46;61.28;102542.25;5052736;28;20017;-69
2022/07/06 08:13:20;;;;;;;1.13;0.80;;;;;;;16.57;61.72;102541.09;5052604;28;20082;-69
2022/07/06 08:15:46;;;;;;;2.58;0.73;;;;;;;16.57;60.52;102527.94;5056890;28;20031;-70
2022/07/06 08:18:11;;;;;;;1.60;0.70;;;;;;;16.71;61.51;102540.81;5051950;28;20381;-69
2022/07/06 08:20:37;;;;;;;1.55;0.80;;;;;;;16.77;58.13;102545.94;5052408;28;20385;-70
2022/07/06 08:23:03;;;;;;;2.03;1.10;;;;;;;16.82;57.96;102546.72;5056930;28;20073;-69
2022/07/06 08:25:29;;;;;;;1.08;0.70;;;;;;;16.88;59.51;102552.78;5054396;28;20025;-69
2022/07/06 08:27:54;;;;;;;2.28;0.82;;;;;;;16.97;58.49;102550.78;5053541;28;20036;-69
2022/07/06 08:30:19;;;;;;;1.35;0.80;;;;;;;17.12;60.19;102548.69;5057684;28;20112;-69
2022/07/06 08:32:45;;;;;;;4.80;1.00;;;;;;;17.22;58.48;102548.44;5052323;28;20036;-69
2022/07/06 08:35:10;;;;;;;0.93;0.80;;;;;;;17.43;58.47;102547.06;5053928;28;20037;-69
2022/07/06 08:37:35;;;;;;;3.72;0.90;;;;;;;17.65;57.27;102533.28;5053356;28;20461;-69
2022/07/06 08:40:01;;;;;;;1.25;0.65;;;;;;;17.91;56.42;102540.56;5059869;28;20115;-69
2022/07/06 08:42:30;;;;;;;1.13;0.50;;;;;;;18.27;56.59;102540.44;5064998;28;20380;-69
2022/07/06 08:45:00;;;;;;;1.15;0.60;;;;;;;18.40;52.44;102525.97;5053251;28;20017;-69
2022/07/06 08:47:26;;;;;;;4.22;0.77;;;;;;;18.39;53.17;102543.59;5052748;28;20017;-69
2022/07/06 08:49:51;;;;;;;4.20;1.40;;;;;;;18.31;53.50;102537.69;5052822;28;20548;-69
2022/07/06 08:52:17;;;;;;;4.03;0.90;;;;;;;18.42;54.66;102535.56;5063737;28;20135;-69
2022/07/06 08:54:43;;;;;;;1.38;0.80;;;;;;;18.69;51.10;102533.88;5070461;28;20028;-69
2022/07/06 08:57:08;;;;;;;2.40;0.80;;;;;;;18.92;52.39;102527.03;5073414;28;20059;-69
2022/07/06 08:59:34;;;;;;;1.67;0.70;;;;;;;19.05;53.68;102530.16;5073109;28;20043;-69
2022/07/06 09:02:00;;;;;;;1.42;0.60;;;;;;;19.19;51.15;102527.91;5072524;28;20053;-70
2022/07/06 09:04:25;;;;;;;2.95;0.90;;;;;;;19.04;52.00;102526.66;5073332;28;20479;-69
2022/07/06 09:06:51;;;;;;;3.10;0.70;;;;;;;18.84;55.36;102535.22;5071733;28;20035;-70
2022/07/06 09:09:21;;;;;;;3.40;0.80;;;;;;;18.59;54.95;102535.06;5072399;28;20070;-70
2022/07/06 09:11:46;;;;;;;2.03;0.60;;;;;;;18.48;56.07;102540.69;5072521;28;20020;-69
2022/07/06 09:14:12;;;;;;;3.63;1.15;;;;;;;18.58;53.87;102529.84;5072342;28;20107;-69
2022/07/06 09:16:37;;;;;;;2.05;0.75;;;;;;;18.84;53.61;102529.94;5072596;28;20039;-69
2022/07/06 09:19:02;;;;;;;2.90;1.08;;;;;;;19.26;53.58;102523.28;5072837;28;20025;-70
2022/07/06 09:21:31;;;;;;;1.58;0.70;;;;;;;19.55;52.96;102519.66;5072236;28;20380;-69
2022/07/06 09:23:59;;;;;;;3.13;0.90;;;;;;;20.00;53.81;102525.16;5072337;28;20028;-69
2022/07/06 09:26:25;;;;;;;2.10;0.80;;;;;;;20.43;50.72;102522.69;5072827;28;20500;-70
2022/07/06 09:28:54;;;;;;;4.15;0.65;;;;;;;20.70;48.34;102521.66;5071484;28;20028;-70
2022/07/06 09:31:19;;;;;;;1.33;0.70;;;;;;;21.05;49.61;102527.31;5072909;28;20028;-69
2022/07/06 09:34:05;;;;;;;2.33;0.70;;;;;;;21.54;50.10;102532.41;5072045;28;20093;-70
2022/07/06 09:36:41;;;;;;;2.30;0.90;;;;;;;21.54;48.16;102527.09;5072084;28;20020;-70
2022/07/06 09:39:29;;;;;;;3.88;0.80;;;;;;;21.48;48.79;102536.16;5072333;28;20058;-69
2022/07/06 09:42:00;;;;;;;3.50;0.70;;;;;;;21.46;45.29;102535.38;5071464;28;20047;-70
2022/07/06 09:44:27;;;;;;;1.25;0.68;;;;;;;21.47;44.34;102534.44;5058835;28;20060;-69
2022/07/06 09:46:55;;;;;;;1.85;0.68;;;;;;;21.35;46.56;102540.25;5071998;28;20024;-70
2022/07/06 09:49:21;;;;;;;1.55;0.70;;;;;;;21.24;44.91;102536.25;5071516;28;20461;-69
2022/07/06 09:51:49;;;;;;;1.30;0.70;;;;;;;21.19;47.44;102538.22;5064908;28;20116;-70
2022/07/06 09:54:16;;;;;;;2.55;0.60;;;;;;;21.07;46.36;102541.38;5065774;28;20082;-70
2022/07/06 09:56:43;;;;;;;2.42;0.70;;;;;;;20.87;49.03;102534.25;5070921;28;20027;-70
2022/07/06 09:59:12;;;;;;;3.25;0.70;;;;;;;21.00;47.71;102539.91;5072065;28;20468;-70
2022/07/06 10:01:38;;;;;;;2.90;0.55;;;;;;;21.03;48.71;102537.13;5071738;28;20503;-70
2022/07/06 10:04:08;;;;;;;1.00;0.68;;;;;;;21.02;45.18;102532.75;5071325;28;20113;-69
2022/07/06 10:06:35;;;;;;;2.00;0.60;;;;;;;21.16;48.25;102540.16;5071827;28;20052;-70
2022/07/06 10:09:00;;;;;;;0.88;0.55;;;;;;;21.35;47.78;102537.59;5071889;28;20025;-70
2022/07/06 10:11:28;;;;;;;3.33;1.10;;;;;;;21.61;42.79;102528.53;5071167;28;20034;-76
2022/07/06 10:13:57;;;;;;;2.33;0.90;;;;;;;21.79;44.92;102535.72;5069347;28;20097;-75
2022/07/06 10:16:24;;;;;;;2.53;0.70;;;;;;;21.88;43.67;102534.47;5060311;28;20516;-75
2022/07/06 10:18:53;;;;;;;2.65;0.77;;;;;;;21.79;43.99;102538.38;5070470;28;20060;-75
2022/07/06 10:21:19;;;;;;;1.00;0.60;;;;;;;21.63;44.04;102540.81;5071989;28;20115;-75
2022/07/06 10:23:45;;;;;;;1.40;0.77;;;;;;;21.44;41.08;102550.50;5070402;28;20119;-76
2022/07/06 10:26:11;;;;;;;2.08;0.60;;;;;;;21.38;45.05;102545.44;5071022;28;20116;-76
2022/07/06 10:28:37;;;;;;;3.90;0.70;;;;;;;21.43;46.00;102538.16;5071593;28;20468;-75
2022/07/06 10:31:03;;;;;;;1.75;0.52;;;;;;;21.35;43.03;102538.47;5071421;28;20025;-76
2022/07/06 10:33:30;;;;;;;2.85;0.70;;;;;;;21.33;45.20;102539.44;5071477;28;20460;-76
2022/07/06 10:35:56;;;;;;;3.00;0.90;;;;;;;21.25;45.59;102551.25;5071745;28;20068;-76
2022/07/06 10:38:31;;;;;;;2.10;0.70;;;;;;;21.26;45.01;102542.34;5064632;28;20074;-76
2022/07/06 10:41:04;;;;;;;1.67;0.73;;;;;;;21.43;46.80;102538.16;5058941;28;20028;-76
2022/07/06 10:43:37;;;;;;;2.47;0.90;;;;;;;21.73;43.07;102533.31;5065443;28;20468;-76
2022/07/06 10:46:08;;;;;;;2.47;0.77;;;;;;;22.02;45.36;102537.34;5072082;28;20028;-76
2022/07/06 10:49:02;;;;;;;2.88;0.75;;;;;;;22.29;44.59;102540.56;5069566;28;20029;-75
2022/07/06 10:51:32;;;;;;;2.97;0.70;;;;;;;22.56;43.46;102541.09;5055292;28;20041;-76
2022/07/06 10:54:04;;;;;;;2.55;0.70;;;;;;;22.44;42.37;102528.38;5061630;28;20028;-76
2022/07/06 10:56:44;;;;;;;0.80;0.60;;;;;;;22.45;40.49;102538.06;5069676;28;20498;-76
2022/07/06 10:59:15;;;;;;;1.10;0.70;;;;;;;22.30;38.91;102529.03;5071033;28;20025;-76
2022/07/06 11:01:41;;;;;;;1.52;0.70;;;;;;;22.30;39.06;102536.09;5069807;28;20024;-76
2022/07/06 11:04:09;;;;;;;1.90;0.73;;;;;;;22.27;41.27;102529.16;5068958;28;20468;-76
2022/07/06 11:06:39;;;;;;;3.20;0.80;;;;;;;22.40;43.42;102527.66;5058321;28;20035;-76
2022/07/06 11:09:10;;;;;;;2.47;0.68;;;;;;;22.60;44.06;102533.84;5060623;28;20037;-76
2022/07/06 11:11:35;;;;;;;1.55;0.60;;;;;;;22.80;43.56;102535.53;5069256;28;20017;-76
2022/07/06 11:14:14;;;;;;;1.70;0.70;;;;;;;22.89;42.84;102524.47;5069391;28;20032;-76
2022/07/06 11:17:00;;;;;;;1.88;0.75;;;;;;;22.67;39.50;102528.16;5067038;28;20289;-76
2022/07/06 11:19:26;;;;;;;1.33;0.70;;;;;;;22.57;40.49;102524.22;5070653;28;20021;-76
2022/07/06 11:21:56;;;;;;;4.80;0.80;;;;;;;22.26;43.36;102523.91;5076884;28;20026;-75
2022/07/06 11:24:23;;;;;;;1.02;0.70;;;;;;;22.00;41.89;102528.56;5066557;28;20116;-76
2022/07/06 11:26:51;;;;;;;2.67;0.70;;;;;;;22.17;46.00;102519.88;5070422;28;20070;-76
2022/07/06 11:29:23;;;;;;;4.30;0.77;;;;;;;22.37;42.75;102518.97;5070710;28;20032;-76